sensor_id;sensor_type;location;lat;lon;timestamp;P1;durP1;ratioP1;P2;durP2;ratioP2
63095;SDS011;49184;55.596;37.770;2022-10-16T05:07:21;25.73;;;11.07;;
63095;SDS011;49184;55.596;37.770;2022-10-16T05:09:47;24.80;;;11.57;;
63095;SDS011;49184;55.596;37.770;2022-10-16T05:12:14;26.48;;;11.80;;
63095;SDS011;49184;55.596;37.770;2022-10-16T05:14:40;33.20;;;12.35;;
63095;SDS011;49184;55.596;37.770;2022-10-16T05:17:06;28.23;;;12.50;;
63095;SDS011;49184;55.596;37.770;2022-10-16T05:19:34;24.55;;;12.45;;
63095;SDS011;49184;55.596;37.770;2022-10-16T05:22:00;34.25;;;14.23;;
63095;SDS011;49184;55.596;37.770;2022-10-16T05:24:26;30.30;;;12.88;;
63095;SDS011;49184;55.596;37.770;2022-10-16T05:26:52;27.33;;;12.15;;
63095;SDS011;49184;55.596;37.770;2022-10-16T05:29:18;23.67;;;10.93;;
63095;SDS011;49184;55.596;37.770;2022-10-16T05:31:44;21.08;;;10.65;;
63095;SDS011;49184;55.596;37.770;2022-10-16T05:34:10;21.25;;;9.45;;
63095;SDS011;49184;55.596;37.770;2022-10-16T05:36:37;26.65;;;10.50;;
63095;SDS011;49184;55.596;37.770;2022-10-16T05:39:03;18.93;;;9.60;;
63095;SDS011;49184;55.596;37.770;2022-10-16T05:41:29;18.98;;;8.68;;
63095;SDS011;49184;55.596;37.770;2022-10-16T05:43:55;24.65;;;9.52;;
63095;SDS011;49184;55.596;37.770;2022-10-16T05:46:21;29.85;;;9.48;;
63095;SDS011;49184;55.596;37.770;2022-10-16T05:48:47;19.92;;;10.32;;
63095;SDS011;49184;55.596;37.770;2022-10-16T05:51:14;20.55;;;8.82;;
63095;SDS011;49184;55.596;37.770;2022-10-16T05:53:40;19.33;;;8.68;;
63095;SDS011;49184;55.596;37.770;2022-10-16T05:56:07;21.15;;;8.93;;
63095;SDS011;49184;55.596;37.770;2022-10-16T05:58:36;24.33;;;9.70;;
63095;SDS011;49184;55.596;37.770;2022-10-16T06:01:06;25.33;;;8.80;;
63095;SDS011;49184;55.596;37.770;2022-10-16T06:03:35;18.30;;;8.98;;
63095;SDS011;49184;55.596;37.770;2022-10-16T06:06:09;23.73;;;8.70;;
63095;SDS011;49184;55.596;37.770;2022-10-16T06:08:43;21.60;;;9.30;;
63095;SDS011;49184;55.596;37.770;2022-10-16T06:11:13;24.20;;;9.85;;
63095;SDS011;49184;55.596;37.770;2022-10-16T06:13:41;19.83;;;10.15;;
63095;SDS011;49184;55.596;37.770;2022-10-16T06:16:08;30.38;;;9.90;;
63095;SDS011;49184;55.596;37.770;2022-10-16T06:18:36;19.15;;;9.95;;
63095;SDS011;49184;55.596;37.770;2022-10-16T06:21:09;20.15;;;9.82;;
63095;SDS011;49184;55.596;37.770;2022-10-16T06:23:38;30.08;;;9.77;;
63095;SDS011;49184;55.596;37.770;2022-10-16T06:26:04;25.05;;;10.05;;
63095;SDS011;49184;55.596;37.770;2022-10-16T06:28:34;22.40;;;9.57;;
63095;SDS011;49184;55.596;37.770;2022-10-16T06:31:01;22.60;;;9.52;;
63095;SDS011;49184;55.596;37.770;2022-10-16T06:33:29;31.73;;;10.52;;
63095;SDS011;49184;55.596;37.770;2022-10-16T06:36:14;47.28;;;24.70;;
63095;SDS011;49184;55.596;37.770;2022-10-16T06:38:42;25.20;;;11.73;;
63095;SDS011;49184;55.596;37.770;2022-10-16T06:41:13;32.47;;;13.07;;
63095;SDS011;49184;55.596;37.770;2022-10-16T06:43:41;59.97;;;14.02;;
63095;SDS011;49184;55.596;37.770;2022-10-16T06:46:09;35.50;;;12.65;;
63095;SDS011;49184;55.596;37.770;2022-10-16T06:48:37;26.65;;;10.10;;
63095;SDS011;49184;55.596;37.770;2022-10-16T06:53:35;35.83;;;15.70;;
63095;SDS011;49184;55.596;37.770;2022-10-16T06:56:12;28.15;;;12.80;;
63095;SDS011;49184;55.596;37.770;2022-10-16T06:58:41;30.50;;;11.43;;
63095;SDS011;49184;55.596;37.770;2022-10-16T07:01:08;28.40;;;10.82;;
63095;SDS011;49184;55.596;37.770;2022-10-16T07:03:38;38.70;;;11.30;;
63095;SDS011;49184;55.596;37.770;2022-10-16T07:06:06;33.53;;;11.55;;
63095;SDS011;49184;55.596;37.770;2022-10-16T07:08:35;32.45;;;12.18;;
63095;SDS011;49184;55.596;37.770;2022-10-16T07:11:07;30.40;;;13.68;;
63095;SDS011;49184;55.596;37.770;2022-10-16T07:13:39;31.05;;;12.90;;
63095;SDS011;49184;55.596;37.770;2022-10-16T07:16:08;27.60;;;13.20;;
63095;SDS011;49184;55.596;37.770;2022-10-16T07:18:44;41.70;;;13.60;;
63095;SDS011;49184;55.596;37.770;2022-10-16T07:23:39;28.63;;;13.60;;
63095;SDS011;49184;55.596;37.770;2022-10-16T07:26:06;33.40;;;13.75;;
63095;SDS011;49184;55.596;37.770;2022-10-16T07:28:33;29.73;;;14.70;;
63095;SDS011;49184;55.596;37.770;2022-10-16T07:31:00;30.45;;;12.63;;
63095;SDS011;49184;55.596;37.770;2022-10-16T07:33:27;36.00;;;11.73;;
63095;SDS011;49184;55.596;37.770;2022-10-16T07:35:54;34.63;;;14.88;;
63095;SDS011;49184;55.596;37.770;2022-10-16T07:38:21;26.50;;;14.00;;
63095;SDS011;49184;55.596;37.770;2022-10-16T07:40:48;31.13;;;14.23;;
63095;SDS011;49184;55.596;37.770;2022-10-16T07:43:22;28.02;;;11.68;;
63095;SDS011;49184;55.596;37.770;2022-10-16T07:45:48;32.63;;;12.88;;
63095;SDS011;49184;55.596;37.770;2022-10-16T07:50:41;50.85;;;14.90;;
63095;SDS011;49184;55.596;37.770;2022-10-16T07:53:08;36.55;;;12.77;;
63095;SDS011;49184;55.596;37.770;2022-10-16T07:55:34;37.50;;;16.33;;
63095;SDS011;49184;55.596;37.770;2022-10-16T07:58:01;56.90;;;12.63;;
63095;SDS011;49184;55.596;37.770;2022-10-16T08:00:27;27.00;;;10.40;;
63095;SDS011;49184;55.596;37.770;2022-10-16T08:02:53;30.50;;;11.90;;
63095;SDS011;49184;55.596;37.770;2022-10-16T08:05:19;42.70;;;12.32;;
63095;SDS011;49184;55.596;37.770;2022-10-16T08:07:48;22.13;;;10.82;;
63095;SDS011;49184;55.596;37.770;2022-10-16T08:10:16;23.23;;;9.18;;
63095;SDS011;49184;55.596;37.770;2022-10-16T08:12:43;52.55;;;12.20;;
63095;SDS011;49184;55.596;37.770;2022-10-16T08:15:10;42.45;;;14.48;;
63095;SDS011;49184;55.596;37.770;2022-10-16T08:17:37;42.65;;;14.13;;
63095;SDS011;49184;55.596;37.770;2022-10-16T08:20:04;25.23;;;8.98;;
63095;SDS011;49184;55.596;37.770;2022-10-16T08:24:56;41.23;;;9.50;;
63095;SDS011;49184;55.596;37.770;2022-10-16T08:27:23;31.20;;;10.13;;
63095;SDS011;49184;55.596;37.770;2022-10-16T08:29:49;40.90;;;13.32;;
63095;SDS011;49184;55.596;37.770;2022-10-16T08:32:15;69.43;;;12.13;;
63095;SDS011;49184;55.596;37.770;2022-10-16T08:34:42;31.33;;;9.07;;
63095;SDS011;49184;55.596;37.770;2022-10-16T08:37:08;38.05;;;10.18;;
63095;SDS011;49184;55.596;37.770;2022-10-16T08:39:36;23.55;;;7.65;;
63095;SDS011;49184;55.596;37.770;2022-10-16T08:42:15;43.25;;;8.75;;
63095;SDS011;49184;55.596;37.770;2022-10-16T08:50:11;38.83;;;10.55;;
63095;SDS011;49184;55.596;37.770;2022-10-16T08:52:40;55.58;;;11.85;;
63095;SDS011;49184;55.596;37.770;2022-10-16T08:55:17;160.10;;;75.65;;
63095;SDS011;49184;55.596;37.770;2022-10-16T08:57:50;31.70;;;14.80;;
63095;SDS011;49184;55.596;37.770;2022-10-16T09:00:16;36.45;;;13.50;;
63095;SDS011;49184;55.596;37.770;2022-10-16T09:05:21;23.70;;;9.02;;
63095;SDS011;49184;55.596;37.770;2022-10-16T09:10:33;279.58;;;18.98;;
63095;SDS011;49184;55.596;37.770;2022-10-16T09:20:59;28.90;;;11.10;;
63095;SDS011;49184;55.596;37.770;2022-10-16T09:23:31;28.70;;;11.73;;
63095;SDS011;49184;55.596;37.770;2022-10-16T09:26:01;19.38;;;7.65;;
63095;SDS011;49184;55.596;37.770;2022-10-16T09:28:31;25.75;;;9.32;;
63095;SDS011;49184;55.596;37.770;2022-10-16T09:30:57;25.58;;;6.30;;
63095;SDS011;49184;55.596;37.770;2022-10-16T09:33:25;20.98;;;7.72;;
63095;SDS011;49184;55.596;37.770;2022-10-16T09:36:05;18.88;;;6.63;;
63095;SDS011;49184;55.596;37.770;2022-10-16T09:41:00;39.72;;;6.25;;
63095;SDS011;49184;55.596;37.770;2022-10-16T09:43:35;31.45;;;4.70;;
63095;SDS011;49184;55.596;37.770;2022-10-16T09:46:22;30.67;;;6.65;;
63095;SDS011;49184;55.596;37.770;2022-10-16T09:48:50;34.00;;;4.85;;
63095;SDS011;49184;55.596;37.770;2022-10-16T09:53:57;15.32;;;6.18;;
63095;SDS011;49184;55.596;37.770;2022-10-16T09:56:40;18.67;;;6.70;;
63095;SDS011;49184;55.596;37.770;2022-10-16T10:01:41;22.77;;;7.15;;
63095;SDS011;49184;55.596;37.770;2022-10-16T10:04:11;156.90;;;10.13;;
63095;SDS011;49184;55.596;37.770;2022-10-16T10:06:41;22.83;;;5.60;;
63095;SDS011;49184;55.596;37.770;2022-10-16T10:09:53;12.57;;;4.63;;
63095;SDS011;49184;55.596;37.770;2022-10-16T10:12:04;21.83;;;6.70;;
63095;SDS011;49184;55.596;37.770;2022-10-16T10:17:07;113.10;;;10.93;;
63095;SDS011;49184;55.596;37.770;2022-10-16T10:19:37;21.08;;;7.05;;
63095;SDS011;49184;55.596;37.770;2022-10-16T10:24:44;15.68;;;6.20;;
63095;SDS011;49184;55.596;37.770;2022-10-16T10:27:20;16.38;;;5.63;;
63095;SDS011;49184;55.596;37.770;2022-10-16T10:32:34;17.42;;;5.93;;
63095;SDS011;49184;55.596;37.770;2022-10-16T10:37:43;33.03;;;9.13;;
63095;SDS011;49184;55.596;37.770;2022-10-16T10:40:28;19.80;;;7.00;;
63095;SDS011;49184;55.596;37.770;2022-10-16T10:46:09;30.05;;;6.10;;
63095;SDS011;49184;55.596;37.770;2022-10-16T10:48:47;18.45;;;6.10;;
63095;SDS011;49184;55.596;37.770;2022-10-16T10:57:06;10.80;;;5.00;;
63095;SDS011;49184;55.596;37.770;2022-10-16T11:05:29;15.23;;;4.25;;
63095;SDS011;49184;55.596;37.770;2022-10-16T11:08:09;13.93;;;4.40;;
63095;SDS011;49184;55.596;37.770;2022-10-16T11:10:54;20.00;;;4.95;;
63095;SDS011;49184;55.596;37.770;2022-10-16T11:16:10;18.17;;;4.93;;
63095;SDS011;49184;55.596;37.770;2022-10-16T11:18:55;68.15;;;8.00;;
63095;SDS011;49184;55.596;37.770;2022-10-16T11:21:29;13.85;;;5.40;;
63095;SDS011;49184;55.596;37.770;2022-10-16T11:24:04;21.48;;;6.95;;
63095;SDS011;49184;55.596;37.770;2022-10-16T11:26:41;22.33;;;7.47;;
63095;SDS011;49184;55.596;37.770;2022-10-16T11:29:14;16.00;;;4.80;;
63095;SDS011;49184;55.596;37.770;2022-10-16T11:31:57;10.35;;;5.18;;
63095;SDS011;49184;55.596;37.770;2022-10-16T11:34:42;21.38;;;8.77;;
63095;SDS011;49184;55.596;37.770;2022-10-16T11:37:19;22.05;;;7.97;;
63095;SDS011;49184;55.596;37.770;2022-10-16T11:39:50;17.50;;;6.97;;
63095;SDS011;49184;55.596;37.770;2022-10-16T11:42:36;22.10;;;7.00;;
63095;SDS011;49184;55.596;37.770;2022-10-16T11:47:34;24.38;;;8.73;;
63095;SDS011;49184;55.596;37.770;2022-10-16T11:52:55;56.67;;;22.45;;
63095;SDS011;49184;55.596;37.770;2022-10-16T11:55:38;75.68;;;20.52;;
63095;SDS011;49184;55.596;37.770;2022-10-16T12:03:48;31.80;;;5.95;;
63095;SDS011;49184;55.596;37.770;2022-10-16T12:09:25;41.80;;;17.90;;
63095;SDS011;49184;55.596;37.770;2022-10-16T12:11:54;35.45;;;11.82;;
63095;SDS011;49184;55.596;37.770;2022-10-16T12:17:22;27.02;;;10.75;;
63095;SDS011;49184;55.596;37.770;2022-10-16T12:19:58;45.35;;;19.40;;
63095;SDS011;49184;55.596;37.770;2022-10-16T12:22:26;21.75;;;7.55;;
63095;SDS011;49184;55.596;37.770;2022-10-16T12:24:56;13.40;;;5.38;;
63095;SDS011;49184;55.596;37.770;2022-10-16T12:30:00;26.80;;;10.70;;
63095;SDS011;49184;55.596;37.770;2022-10-16T12:32:33;16.77;;;6.35;;
63095;SDS011;49184;55.596;37.770;2022-10-16T12:35:02;15.55;;;6.90;;
63095;SDS011;49184;55.596;37.770;2022-10-16T12:37:36;17.85;;;7.60;;
63095;SDS011;49184;55.596;37.770;2022-10-16T12:40:14;21.30;;;7.43;;
63095;SDS011;49184;55.596;37.770;2022-10-16T12:42:49;19.17;;;9.55;;
63095;SDS011;49184;55.596;37.770;2022-10-16T12:45:48;21.08;;;6.75;;
63095;SDS011;49184;55.596;37.770;2022-10-16T12:48:20;25.70;;;12.27;;
63095;SDS011;49184;55.596;37.770;2022-10-16T12:50:47;51.85;;;17.85;;
63095;SDS011;49184;55.596;37.770;2022-10-16T12:53:19;55.28;;;21.98;;
63095;SDS011;49184;55.596;37.770;2022-10-16T12:58:28;24.98;;;7.05;;
63095;SDS011;49184;55.596;37.770;2022-10-16T13:06:58;20.15;;;6.75;;
63095;SDS011;49184;55.596;37.770;2022-10-16T13:12:36;23.98;;;8.32;;
63095;SDS011;49184;55.596;37.770;2022-10-16T13:15:32;19.30;;;9.10;;
63095;SDS011;49184;55.596;37.770;2022-10-16T13:18:06;18.48;;;7.88;;
63095;SDS011;49184;55.596;37.770;2022-10-16T13:20:56;106.80;;;9.07;;
63095;SDS011;49184;55.596;37.770;2022-10-16T13:26:35;13.13;;;5.13;;
63095;SDS011;49184;55.596;37.770;2022-10-16T13:29:09;27.27;;;7.03;;
63095;SDS011;49184;55.596;37.770;2022-10-16T13:31:37;31.20;;;8.55;;
63095;SDS011;49184;55.596;37.770;2022-10-16T13:34:04;15.52;;;7.05;;
63095;SDS011;49184;55.596;37.770;2022-10-16T13:36:50;11.32;;;5.78;;
63095;SDS011;49184;55.596;37.770;2022-10-16T13:39:22;20.92;;;7.10;;
63095;SDS011;49184;55.596;37.770;2022-10-16T13:42:03;16.67;;;7.88;;
63095;SDS011;49184;55.596;37.770;2022-10-16T13:44:45;17.95;;;6.70;;
63095;SDS011;49184;55.596;37.770;2022-10-16T13:47:19;47.95;;;9.63;;
63095;SDS011;49184;55.596;37.770;2022-10-16T13:49:45;36.25;;;12.07;;
63095;SDS011;49184;55.596;37.770;2022-10-16T13:52:19;38.58;;;11.98;;
63095;SDS011;49184;55.596;37.770;2022-10-16T13:54:47;29.73;;;12.93;;
63095;SDS011;49184;55.596;37.770;2022-10-16T13:57:14;51.25;;;16.88;;
63095;SDS011;49184;55.596;37.770;2022-10-16T13:59:42;44.70;;;14.55;;
63095;SDS011;49184;55.596;37.770;2022-10-16T14:02:20;65.03;;;17.17;;
63095;SDS011;49184;55.596;37.770;2022-10-16T14:04:54;53.75;;;17.33;;
63095;SDS011;49184;55.596;37.770;2022-10-16T14:07:26;41.97;;;10.90;;
63095;SDS011;49184;55.596;37.770;2022-10-16T14:09:59;36.97;;;11.15;;
63095;SDS011;49184;55.596;37.770;2022-10-16T14:12:53;33.20;;;13.98;;
63095;SDS011;49184;55.596;37.770;2022-10-16T14:15:22;43.45;;;19.00;;
63095;SDS011;49184;55.596;37.770;2022-10-16T14:17:50;45.35;;;20.42;;
63095;SDS011;49184;55.596;37.770;2022-10-16T14:20:18;76.45;;;26.58;;
63095;SDS011;49184;55.596;37.770;2022-10-16T14:22:47;82.68;;;34.30;;
63095;SDS011;49184;55.596;37.770;2022-10-16T14:25:26;43.13;;;15.52;;
63095;SDS011;49184;55.596;37.770;2022-10-16T14:28:02;40.28;;;11.65;;
63095;SDS011;49184;55.596;37.770;2022-10-16T14:30:53;25.33;;;10.93;;
63095;SDS011;49184;55.596;37.770;2022-10-16T14:36:17;35.88;;;14.80;;
63095;SDS011;49184;55.596;37.770;2022-10-16T14:39:03;42.50;;;18.88;;
63095;SDS011;49184;55.596;37.770;2022-10-16T14:41:32;52.08;;;16.08;;
63095;SDS011;49184;55.596;37.770;2022-10-16T14:44:09;55.00;;;17.02;;
63095;SDS011;49184;55.596;37.770;2022-10-16T14:46:38;38.33;;;14.60;;
63095;SDS011;49184;55.596;37.770;2022-10-16T14:49:17;45.70;;;16.30;;
63095;SDS011;49184;55.596;37.770;2022-10-16T14:51:46;45.30;;;18.73;;
63095;SDS011;49184;55.596;37.770;2022-10-16T14:54:15;65.65;;;25.45;;
63095;SDS011;49184;55.596;37.770;2022-10-16T14:56:45;50.42;;;20.90;;
63095;SDS011;49184;55.596;37.770;2022-10-16T14:59:34;53.75;;;20.70;;
63095;SDS011;49184;55.596;37.770;2022-10-16T15:02:46;65.40;;;22.17;;
63095;SDS011;49184;55.596;37.770;2022-10-16T15:04:57;60.47;;;24.98;;
63095;SDS011;49184;55.596;37.770;2022-10-16T15:07:24;57.90;;;23.92;;
63095;SDS011;49184;55.596;37.770;2022-10-16T15:09:52;69.07;;;26.45;;
63095;SDS011;49184;55.596;37.770;2022-10-16T15:12:19;65.15;;;23.52;;
63095;SDS011;49184;55.596;37.770;2022-10-16T15:14:45;98.60;;;34.60;;
63095;SDS011;49184;55.596;37.770;2022-10-16T15:17:11;148.77;;;52.47;;
63095;SDS011;49184;55.596;37.770;2022-10-16T15:19:37;180.10;;;69.00;;
63095;SDS011;49184;55.596;37.770;2022-10-16T15:22:04;151.07;;;58.50;;
63095;SDS011;49184;55.596;37.770;2022-10-16T15:26:56;135.73;;;47.60;;
63095;SDS011;49184;55.596;37.770;2022-10-16T15:29:22;103.07;;;34.78;;
63095;SDS011;49184;55.596;37.770;2022-10-16T15:31:48;110.70;;;35.42;;
63095;SDS011;49184;55.596;37.770;2022-10-16T15:34:17;75.60;;;27.00;;
63095;SDS011;49184;55.596;37.770;2022-10-16T15:36:44;78.70;;;24.65;;
63095;SDS011;49184;55.596;37.770;2022-10-16T15:39:15;68.28;;;22.95;;
63095;SDS011;49184;55.596;37.770;2022-10-16T15:41:43;65.05;;;21.60;;
63095;SDS011;49184;55.596;37.770;2022-10-16T15:44:10;55.22;;;21.33;;
63095;SDS011;49184;55.596;37.770;2022-10-16T15:46:36;53.93;;;20.37;;
63095;SDS011;49184;55.596;37.770;2022-10-16T15:49:03;51.50;;;19.17;;
63095;SDS011;49184;55.596;37.770;2022-10-16T15:51:30;51.50;;;17.85;;
63095;SDS011;49184;55.596;37.770;2022-10-16T15:53:58;37.75;;;16.33;;
63095;SDS011;49184;55.596;37.770;2022-10-16T15:56:27;46.60;;;14.02;;
63095;SDS011;49184;55.596;37.770;2022-10-16T15:58:54;43.25;;;13.88;;
63095;SDS011;49184;55.596;37.770;2022-10-16T16:01:20;38.05;;;12.60;;
63095;SDS011;49184;55.596;37.770;2022-10-16T16:03:47;29.23;;;10.70;;
63095;SDS011;49184;55.596;37.770;2022-10-16T16:06:13;46.63;;;10.82;;
63095;SDS011;49184;55.596;37.770;2022-10-16T16:08:39;83.03;;;19.65;;
63095;SDS011;49184;55.596;37.770;2022-10-16T16:11:07;92.80;;;26.60;;
63095;SDS011;49184;55.596;37.770;2022-10-16T16:13:39;46.17;;;14.13;;
63095;SDS011;49184;55.596;37.770;2022-10-16T16:16:12;31.38;;;12.40;;
63095;SDS011;49184;55.596;37.770;2022-10-16T16:18:40;38.28;;;13.40;;
63095;SDS011;49184;55.596;37.770;2022-10-16T16:21:06;41.00;;;13.50;;
63095;SDS011;49184;55.596;37.770;2022-10-16T16:23:32;38.15;;;13.10;;
63095;SDS011;49184;55.596;37.770;2022-10-16T16:26:02;40.20;;;13.05;;
63095;SDS011;49184;55.596;37.770;2022-10-16T16:28:35;45.90;;;13.85;;
63095;SDS011;49184;55.596;37.770;2022-10-16T16:31:02;31.67;;;12.52;;
63095;SDS011;49184;55.596;37.770;2022-10-16T16:33:28;38.50;;;12.68;;
63095;SDS011;49184;55.596;37.770;2022-10-16T16:36:00;33.83;;;12.27;;
63095;SDS011;49184;55.596;37.770;2022-10-16T16:38:29;63.00;;;13.95;;
63095;SDS011;49184;55.596;37.770;2022-10-16T16:40:55;36.03;;;12.90;;
63095;SDS011;49184;55.596;37.770;2022-10-16T16:43:25;36.05;;;13.35;;
63095;SDS011;49184;55.596;37.770;2022-10-16T16:45:53;35.90;;;14.32;;
63095;SDS011;49184;55.596;37.770;2022-10-16T16:48:20;41.42;;;13.00;;
63095;SDS011;49184;55.596;37.770;2022-10-16T16:50:48;43.58;;;14.75;;
63095;SDS011;49184;55.596;37.770;2022-10-16T16:53:14;31.67;;;13.20;;
63095;SDS011;49184;55.596;37.770;2022-10-16T16:55:42;36.75;;;13.63;;
63095;SDS011;49184;55.596;37.770;2022-10-16T16:58:09;53.83;;;14.15;;
63095;SDS011;49184;55.596;37.770;2022-10-16T17:00:36;28.30;;;12.00;;
63095;SDS011;49184;55.596;37.770;2022-10-16T17:03:02;48.53;;;12.98;;
63095;SDS011;49184;55.596;37.770;2022-10-16T17:07:55;28.30;;;11.25;;
63095;SDS011;49184;55.596;37.770;2022-10-16T17:10:21;38.50;;;11.18;;
63095;SDS011;49184;55.596;37.770;2022-10-16T17:12:48;29.55;;;10.98;;
63095;SDS011;49184;55.596;37.770;2022-10-16T17:15:15;30.27;;;10.93;;
63095;SDS011;49184;55.596;37.770;2022-10-16T17:17:41;36.15;;;11.52;;
63095;SDS011;49184;55.596;37.770;2022-10-16T17:20:08;25.55;;;10.93;;
63095;SDS011;49184;55.596;37.770;2022-10-16T17:22:36;35.00;;;12.68;;
63095;SDS011;49184;55.596;37.770;2022-10-16T17:25:03;31.83;;;13.65;;
63095;SDS011;49184;55.596;37.770;2022-10-16T17:27:32;36.58;;;12.98;;
63095;SDS011;49184;55.596;37.770;2022-10-16T17:30:01;34.15;;;13.82;;
63095;SDS011;49184;55.596;37.770;2022-10-16T17:32:29;29.27;;;13.27;;
63095;SDS011;49184;55.596;37.770;2022-10-16T17:34:55;45.53;;;14.55;;
63095;SDS011;49184;55.596;37.770;2022-10-16T17:37:21;31.87;;;12.60;;
63095;SDS011;49184;55.596;37.770;2022-10-16T17:39:51;45.63;;;13.82;;
63095;SDS011;49184;55.596;37.770;2022-10-16T17:42:18;28.95;;;12.80;;
63095;SDS011;49184;55.596;37.770;2022-10-16T17:44:45;39.60;;;13.65;;
63095;SDS011;49184;55.596;37.770;2022-10-16T17:47:11;40.55;;;14.93;;
63095;SDS011;49184;55.596;37.770;2022-10-16T17:49:37;39.22;;;13.75;;
63095;SDS011;49184;55.596;37.770;2022-10-16T17:52:04;34.20;;;13.80;;
63095;SDS011;49184;55.596;37.770;2022-10-16T17:54:30;49.47;;;13.10;;
63095;SDS011;49184;55.596;37.770;2022-10-16T17:56:56;42.55;;;12.60;;
63095;SDS011;49184;55.596;37.770;2022-10-16T17:59:22;40.75;;;11.82;;
63095;SDS011;49184;55.596;37.770;2022-10-16T18:01:48;37.60;;;12.95;;
63095;SDS011;49184;55.596;37.770;2022-10-16T18:04:15;32.03;;;12.50;;
63095;SDS011;49184;55.596;37.770;2022-10-16T18:06:42;36.47;;;13.37;;
63095;SDS011;49184;55.596;37.770;2022-10-16T18:09:14;34.25;;;12.75;;
63095;SDS011;49184;55.596;37.770;2022-10-16T18:11:42;66.10;;;14.02;;
63095;SDS011;49184;55.596;37.770;2022-10-16T18:14:10;40.83;;;13.50;;
63095;SDS011;49184;55.596;37.770;2022-10-16T18:16:39;43.15;;;13.48;;
63095;SDS011;49184;55.596;37.770;2022-10-16T18:19:05;55.15;;;13.35;;
63095;SDS011;49184;55.596;37.770;2022-10-16T18:21:32;30.58;;;12.25;;
63095;SDS011;49184;55.596;37.770;2022-10-16T18:23:59;36.80;;;12.40;;
63095;SDS011;49184;55.596;37.770;2022-10-16T18:26:26;34.95;;;12.77;;
63095;SDS011;49184;55.596;37.770;2022-10-16T18:28:53;33.65;;;13.10;;
63095;SDS011;49184;55.596;37.770;2022-10-16T18:31:21;38.00;;;12.00;;
63095;SDS011;49184;55.596;37.770;2022-10-16T18:33:50;29.98;;;12.07;;
63095;SDS011;49184;55.596;37.770;2022-10-16T18:36:18;24.17;;;10.05;;
63095;SDS011;49184;55.596;37.770;2022-10-16T18:38:46;28.77;;;11.35;;
63095;SDS011;49184;55.596;37.770;2022-10-16T18:41:12;24.25;;;11.02;;
63095;SDS011;49184;55.596;37.770;2022-10-16T18:43:39;19.03;;;10.60;;
63095;SDS011;49184;55.596;37.770;2022-10-16T18:46:10;31.70;;;11.55;;
63095;SDS011;49184;55.596;37.770;2022-10-16T18:48:38;22.77;;;10.73;;
63095;SDS011;49184;55.596;37.770;2022-10-16T18:51:12;25.02;;;10.90;;
63095;SDS011;49184;55.596;37.770;2022-10-16T18:53:40;34.88;;;11.50;;
63095;SDS011;49184;55.596;37.770;2022-10-16T18:56:08;26.75;;;11.27;;
63095;SDS011;49184;55.596;37.770;2022-10-16T18:58:37;26.40;;;11.32;;
63095;SDS011;49184;55.596;37.770;2022-10-16T19:01:07;28.17;;;12.50;;
63095;SDS011;49184;55.596;37.770;2022-10-16T19:03:37;27.95;;;11.63;;
63095;SDS011;49184;55.596;37.770;2022-10-16T19:06:06;28.88;;;12.27;;
63095;SDS011;49184;55.596;37.770;2022-10-16T19:08:35;27.38;;;10.70;;
63095;SDS011;49184;55.596;37.770;2022-10-16T19:11:07;29.80;;;11.98;;
63095;SDS011;49184;55.596;37.770;2022-10-16T19:13:35;31.60;;;10.40;;
63095;SDS011;49184;55.596;37.770;2022-10-16T19:16:02;26.07;;;11.23;;
63095;SDS011;49184;55.596;37.770;2022-10-16T19:18:29;24.92;;;11.45;;
63095;SDS011;49184;55.596;37.770;2022-10-16T19:21:02;30.15;;;11.05;;
63095;SDS011;49184;55.596;37.770;2022-10-16T19:23:29;31.70;;;9.95;;
63095;SDS011;49184;55.596;37.770;2022-10-16T19:26:00;28.67;;;10.73;;
63095;SDS011;49184;55.596;37.770;2022-10-16T19:28:30;21.33;;;8.00;;
63095;SDS011;49184;55.596;37.770;2022-10-16T19:30:59;19.00;;;9.40;;
63095;SDS011;49184;55.596;37.770;2022-10-16T19:33:27;18.45;;;8.10;;
63095;SDS011;49184;55.596;37.770;2022-10-16T19:35:58;17.48;;;8.18;;
63095;SDS011;49184;55.596;37.770;2022-10-16T19:38:31;20.63;;;7.85;;
63095;SDS011;49184;55.596;37.770;2022-10-16T19:41:07;18.98;;;8.07;;
63095;SDS011;49184;55.596;37.770;2022-10-16T19:43:35;18.40;;;7.80;;
63095;SDS011;49184;55.596;37.770;2022-10-16T19:46:09;32.90;;;7.50;;
63095;SDS011;49184;55.596;37.770;2022-10-16T19:48:41;18.80;;;7.72;;
63095;SDS011;49184;55.596;37.770;2022-10-16T19:51:12;19.85;;;8.32;;
63095;SDS011;49184;55.596;37.770;2022-10-16T19:53:41;16.23;;;7.35;;
63095;SDS011;49184;55.596;37.770;2022-10-16T19:56:11;15.52;;;8.15;;
63095;SDS011;49184;55.596;37.770;2022-10-16T19:58:39;17.25;;;7.63;;
63095;SDS011;49184;55.596;37.770;2022-10-16T20:03:32;15.32;;;6.95;;
63095;SDS011;49184;55.596;37.770;2022-10-16T20:06:00;20.50;;;7.55;;
63095;SDS011;49184;55.596;37.770;2022-10-16T20:08:31;13.88;;;7.22;;
63095;SDS011;49184;55.596;37.770;2022-10-16T20:10:58;17.13;;;7.38;;
63095;SDS011;49184;55.596;37.770;2022-10-16T20:13:25;15.88;;;8.10;;
63095;SDS011;49184;55.596;37.770;2022-10-16T20:15:53;15.52;;;7.80;;
63095;SDS011;49184;55.596;37.770;2022-10-16T20:18:20;16.13;;;7.60;;
63095;SDS011;49184;55.596;37.770;2022-10-16T20:20:46;15.70;;;7.33;;
63095;SDS011;49184;55.596;37.770;2022-10-16T20:23:16;13.88;;;7.32;;
63095;SDS011;49184;55.596;37.770;2022-10-16T20:25:44;24.60;;;7.70;;
63095;SDS011;49184;55.596;37.770;2022-10-16T20:28:12;17.42;;;8.45;;
63095;SDS011;49184;55.596;37.770;2022-10-16T20:30:41;22.67;;;7.22;;
63095;SDS011;49184;55.596;37.770;2022-10-16T20:33:09;15.85;;;7.88;;
63095;SDS011;49184;55.596;37.770;2022-10-16T20:35:37;13.45;;;6.70;;
63095;SDS011;49184;55.596;37.770;2022-10-16T20:38:05;16.50;;;7.93;;
63095;SDS011;49184;55.596;37.770;2022-10-16T20:40:36;18.20;;;7.50;;
63095;SDS011;49184;55.596;37.770;2022-10-16T20:43:03;27.50;;;6.85;;
63095;SDS011;49184;55.596;37.770;2022-10-16T20:47:57;19.90;;;7.63;;
63095;SDS011;49184;55.596;37.770;2022-10-16T20:50:24;16.55;;;7.35;;
63095;SDS011;49184;55.596;37.770;2022-10-16T20:52:55;14.57;;;6.90;;
63095;SDS011;49184;55.596;37.770;2022-10-16T20:55:21;18.73;;;6.70;;
63095;SDS011;49184;55.596;37.770;2022-10-16T20:57:48;17.33;;;7.57;;
63095;SDS011;49184;55.596;37.770;2022-10-16T21:00:14;19.17;;;7.25;;
63095;SDS011;49184;55.596;37.770;2022-10-16T21:02:40;19.35;;;6.68;;
63095;SDS011;49184;55.596;37.770;2022-10-16T21:05:07;13.05;;;6.40;;
63095;SDS011;49184;55.596;37.770;2022-10-16T21:07:33;12.40;;;6.32;;
63095;SDS011;49184;55.596;37.770;2022-10-16T21:09:59;15.95;;;6.72;;
63095;SDS011;49184;55.596;37.770;2022-10-16T21:12:25;15.40;;;6.45;;
63095;SDS011;49184;55.596;37.770;2022-10-16T21:14:52;23.85;;;7.45;;
63095;SDS011;49184;55.596;37.770;2022-10-16T21:17:19;12.23;;;6.80;;
63095;SDS011;49184;55.596;37.770;2022-10-16T21:19:46;18.60;;;7.30;;
63095;SDS011;49184;55.596;37.770;2022-10-16T21:22:12;19.85;;;6.93;;
63095;SDS011;49184;55.596;37.770;2022-10-16T21:24:38;22.38;;;6.82;;
63095;SDS011;49184;55.596;37.770;2022-10-16T21:27:05;16.83;;;7.25;;